Northwood, Ohio
Current Conditions -  °F | °C
As of 1:53 PM on Friday 21 Nov 2014 (Local Time) from KTDZ Reporting Station
Scattered Clouds Scattered Clouds  
Wind Chill: 14°   Ceiling: Unl
Heat Index: 25°   Visibility: 10mi
Dew Point: 13°   Wind: 12mph
Humidity: 60%   Direction: 210°SSW
Pressure: 30.48"   Gusts: NA
Location:  41.61°N, 83.48°W
Report Text: KTDZ 211853Z AUTO 21010KT 10SM SCT029 M04/M11 A3048 RMK AO2 SLP333 T10391106 TSNO
Loading
Personal Weather Stations






























Interactive Weather Map New forecast layout! Learn more

10-Day Weather Forecast

Advertisements
Track Severe Weather on mobile